createdAt,value
2017-11-17T00:02:26.061Z,26.3
2017-11-17T00:12:42.015Z,26.4
2017-11-17T00:22:57.967Z,26.4
2017-11-17T00:33:13.909Z,26.3
2017-11-17T00:43:28.793Z,26.5
2017-11-17T00:53:44.705Z,26.4
2017-11-17T01:03:59.837Z,26.5
2017-11-17T01:14:15.964Z,26.8
2017-11-17T01:24:32.168Z,26.8
2017-11-17T01:34:47.026Z,26.7
2017-11-17T01:45:03.063Z,26.8
2017-11-17T01:55:18.770Z,27.1
2017-11-17T02:05:33.989Z,27.6
2017-11-17T02:15:48.547Z,27.6
2017-11-17T02:26:03.162Z,27.5
2017-11-17T02:36:17.763Z,27.7
2017-11-17T02:46:33.565Z,28.2
2017-11-17T02:56:49.218Z,28.1
2017-11-17T03:07:05.294Z,28.4
2017-11-17T03:17:21.451Z,28.5
2017-11-17T03:27:37.453Z,28.9
2017-11-17T03:37:52.161Z,29.1
2017-11-17T03:48:06.692Z,29.8
2017-11-17T03:58:21.774Z,30.2
2017-11-17T04:08:36.764Z,29.3
2017-11-17T04:18:51.939Z,29.1
2017-11-17T04:29:07.293Z,29.2
2017-11-17T04:39:23.064Z,29.5
2017-11-17T04:49:38.513Z,29.5
2017-11-17T04:59:52.865Z,29.9
2017-11-17T05:10:09.026Z,30.3
2017-11-17T05:20:24.373Z,30.9
2017-11-17T05:30:38.726Z,31.4
2017-11-17T05:40:53.917Z,30.8
2017-11-17T05:51:09.459Z,30.4
2017-11-17T06:01:24.754Z,30.7
2017-11-17T06:11:39.802Z,31.3
2017-11-17T06:21:55.586Z,31.1
2017-11-17T06:32:10.189Z,31.1
2017-11-17T06:42:24.807Z,31.4
2017-11-17T06:52:40.262Z,31.3
2017-11-17T07:02:55.847Z,31.4
2017-11-17T07:13:11.242Z,31.3
2017-11-17T07:23:26.832Z,31.3
2017-11-17T07:33:43.070Z,31.3
2017-11-17T07:43:59.048Z,31.5
2017-11-17T07:54:15.222Z,31.2
2017-11-17T08:04:34.477Z,31.2
2017-11-17T08:14:45.269Z,31.4
2017-11-17T08:24:59.756Z,31.2
2017-11-17T08:35:15.156Z,30.5
2017-11-17T08:45:31.146Z,29.2
2017-11-17T08:55:47.009Z,29.4
2017-11-17T09:06:01.377Z,29.5
2017-11-17T09:16:16.868Z,29.2
2017-11-17T09:26:32.940Z,28.4
2017-11-17T09:36:48.243Z,28.9
2017-11-17T09:47:03.246Z,29
2017-11-17T09:57:18.005Z,32.6
2017-11-17T10:07:33.041Z,51
2017-11-17T10:17:47.531Z,79.5
2017-11-17T10:28:02.060Z,100
2017-11-17T10:38:17.107Z,100
2017-11-17T10:48:32.412Z,100
2017-11-17T10:58:48.214Z,100
2017-11-17T11:09:04.151Z,100
2017-11-17T11:19:19.658Z,100
2017-11-17T11:29:35.793Z,100
2017-11-17T11:39:51.751Z,100
2017-11-17T11:50:06.965Z,100
2017-11-17T12:00:23.182Z,100
2017-11-17T12:10:39.609Z,100
2017-11-17T12:20:54.510Z,100
2017-11-17T12:31:10.145Z,100
2017-11-17T12:41:24.726Z,100
2017-11-17T12:51:40.227Z,100
2017-11-17T13:01:56.668Z,99.7
2017-11-17T13:12:11.599Z,98.8
2017-11-17T13:22:26.740Z,100
2017-11-17T13:32:42.091Z,100
2017-11-17T13:42:56.805Z,100
2017-11-17T13:53:12.109Z,100
2017-11-17T14:03:28.206Z,100
2017-11-17T14:13:42.665Z,100
2017-11-17T14:23:57.062Z,100
2017-11-17T14:34:11.897Z,100
2017-11-17T14:44:27.660Z,100
2017-11-17T14:54:43.112Z,100
2017-11-17T15:04:58.602Z,100
2017-11-17T15:15:14.255Z,100
2017-11-17T15:25:29.942Z,100
2017-11-17T15:35:45.581Z,100
2017-11-17T15:45:59.990Z,100
2017-11-17T15:56:14.875Z,100
2017-11-17T16:06:30.538Z,100
2017-11-17T16:16:46.627Z,100
2017-11-17T16:27:02.628Z,100
2017-11-17T16:37:18.517Z,100
2017-11-17T16:47:33.543Z,100
2017-11-17T16:57:48.211Z,100
2017-11-17T17:08:02.874Z,99.6
2017-11-17T17:18:17.830Z,88.1
2017-11-17T17:28:32.738Z,80
2017-11-17T17:38:48.337Z,86.3
2017-11-17T17:49:04.394Z,84.5
2017-11-17T17:59:19.074Z,79.9
2017-11-17T18:09:34.969Z,76.5
2017-11-17T18:19:50.367Z,77.6
2017-11-17T18:30:06.227Z,84.3
2017-11-17T18:40:22.384Z,78.9
2017-11-17T18:50:36.880Z,81.2
2017-11-17T19:00:51.429Z,78
2017-11-17T19:11:06.330Z,79
2017-11-17T19:21:22.132Z,82.3
2017-11-17T19:31:36.920Z,80.2
2017-11-17T19:41:51.653Z,86.9
2017-11-17T19:52:07.007Z,90.9
2017-11-17T20:02:22.953Z,85.5
2017-11-17T20:12:37.324Z,82.4
2017-11-17T20:22:52.019Z,84.8
2017-11-17T20:33:06.658Z,86.3
2017-11-17T20:43:22.370Z,84.6
2017-11-17T20:53:37.151Z,84.9
2017-11-17T21:03:51.676Z,82.5
2017-11-17T21:14:07.791Z,79.5
2017-11-17T21:24:23.202Z,78.2
2017-11-17T21:34:38.262Z,71.8
2017-11-17T21:44:52.629Z,70.8
2017-11-17T21:55:08.801Z,70.5
2017-11-17T22:05:24.779Z,67.5
2017-11-17T22:15:40.088Z,61.8
2017-11-17T22:25:55.313Z,58.5
2017-11-17T22:36:11.554Z,56.7
2017-11-17T22:46:26.669Z,53.5
2017-11-17T22:56:42.337Z,52.5
2017-11-17T23:06:58.504Z,51.9
2017-11-17T23:17:13.595Z,51.1
2017-11-17T23:27:29.109Z,50.4
2017-11-17T23:37:45.171Z,49.6
2017-11-17T23:48:01.151Z,48.5
2017-11-17T23:58:16.752Z,47.6
